METAR Data
IDs: Format: Raw Decoded Include TAF

Data at: 1324 UTC 23 Mar 2019

METAR for:KSPB (Scappoose Ind Airpar, OR, US)
Text:KSPB 231253Z AUTO 10003KT 7SM -RA SCT011 SCT021 OVC037 07/06 A3013 RMK AO2 RAB32 SLP204 P0001 T00720056
Temperature: 7.2°C ( 45°F)
Dewpoint: 5.6°C ( 42°F) [RH = 90%]
Pressure (altimeter):30.13 inches Hg (1020.4 mb) [Sea level pressure: 1020.4 mb]
Winds:from the E (100 degrees) at 3 MPH (3 knots; 1.5 m/s)
Visibility: 7 sm ( 11 km)
Ceiling:3700 feet AGL
Clouds: scattered clouds at 1100 feet AGL, scattered clouds at 2100 feet AGL, overcast cloud deck at 3700 feet AGL
Weather:-RA (light rain)
QC Flag:automated observation with no human augmentation